Time;durP1;ratioP1;P1;durP2;ratioP2;P2;SDS_P1;SDS_P2;PMS_P1;PMS_P2;Temp;Humidity;BMP_temperature;BMP_pressure;BME280_temperature;BME280_humidity;BME280_pressure;Samples;Min_cycle;Max_cycle;Signal;HPM_P1;HPM_P2
2021/09/16 00:02:22;;;;;;;14.02;12.45;;;;;;;20.03;88.12;99900.47;10250987;28;20481;-62
2021/09/16 00:07:24;;;;;;;13.35;12.05;;;;;;;19.97;87.96;99902.06;10251357;28;20066;-59
2021/09/16 00:12:26;;;;;;;14.07;12.63;;;;;;;19.89;86.47;99902.19;10271787;28;20082;-59
2021/09/16 00:17:27;;;;;;;14.15;12.75;;;;;;;19.89;87.74;99896.78;10293798;28;20046;-62
2021/09/16 00:22:29;;;;;;;14.00;12.60;;;;;;;19.88;87.69;99897.84;10268025;28;20121;-64
2021/09/16 00:27:30;;;;;;;15.45;12.98;;;;;;;19.88;87.42;99908.66;10289517;28;20217;-59
2021/09/16 00:32:32;;;;;;;13.70;12.25;;;;;;;19.89;87.50;99921.09;10285069;28;20461;-62
2021/09/16 00:37:34;;;;;;;12.93;11.77;;;;;;;19.86;87.71;99916.94;10251447;28;20074;-59
2021/09/16 00:42:36;;;;;;;13.75;12.48;;;;;;;19.84;86.60;99915.44;10258069;28;20642;-60
2021/09/16 00:47:43;;;;;;;14.15;12.65;;;;;;;19.77;87.20;99908.13;10256751;28;20102;-60
2021/09/16 00:52:45;;;;;;;13.32;11.95;;;;;;;19.82;87.86;99915.66;10275363;28;20066;-60
2021/09/16 00:57:51;;;;;;;12.32;10.95;;;;;;;19.81;87.94;99915.84;10290566;28;20475;-62
2021/09/16 01:02:53;;;;;;;15.82;14.25;;;;;;;19.81;87.47;99932.03;10265637;28;20488;-62
2021/09/16 01:07:57;;;;;;;13.18;11.88;;;;;;;19.75;86.98;99930.91;10255870;28;20567;-59
2021/09/16 01:12:59;;;;;;;13.77;12.35;;;;;;;19.71;87.77;99935.88;10260710;28;20039;-61
2021/09/16 01:18:00;;;;;;;13.40;12.10;;;;;;;19.68;87.74;99938.09;10255762;28;20047;-60
2021/09/16 01:23:02;;;;;;;13.15;11.82;;;;;;;19.70;88.26;99944.16;10252248;28;20062;-61
2021/09/16 01:28:03;;;;;;;15.38;13.85;;;;;;;19.70;87.80;99949.56;10253411;28;20070;-59
2021/09/16 01:33:05;;;;;;;14.23;12.82;;;;;;;19.70;89.15;99949.56;10253549;28;20074;-61
2021/09/16 01:38:06;;;;;;;13.05;11.77;;;;;;;19.73;89.06;99955.41;10255217;28;20794;-60
2021/09/16 01:43:08;;;;;;;15.82;14.25;;;;;;;19.32;89.13;99964.06;10251704;28;20105;-63
2021/09/16 01:48:10;;;;;;;16.30;14.60;;;;;;;19.45;87.42;99968.75;10251565;28;20159;-58
2021/09/16 01:53:12;;;;;;;16.08;14.45;;;;;;;19.46;86.67;99964.22;10255391;28;21190;-61
2021/09/16 01:58:13;;;;;;;18.17;16.40;;;;;;;19.43;87.79;99960.84;10289619;28;20500;-60
2021/09/16 02:03:14;;;;;;;19.23;17.33;;;;;;;19.38;87.20;99957.03;10250277;28;20070;-62
2021/09/16 02:08:16;;;;;;;18.17;16.48;;;;;;;19.33;86.51;99965.72;10249588;28;20110;-62
2021/09/16 02:13:18;;;;;;;20.45;18.45;;;;;;;19.29;87.04;99969.81;10251133;28;20631;-61
2021/09/16 02:18:20;;;;;;;19.80;17.73;;;;;;;19.26;87.52;99970.22;10250961;28;20681;-60
2021/09/16 02:23:21;;;;;;;19.80;17.80;;;;;;;19.25;87.15;99965.81;10253293;28;20078;-59
2021/09/16 02:28:22;;;;;;;20.75;18.70;;;;;;;19.17;87.34;99957.81;10249348;28;20130;-60
2021/09/16 02:33:24;;;;;;;20.58;18.52;;;;;;;19.18;87.60;99964.88;10295834;28;20066;-60
2021/09/16 02:38:26;;;;;;;20.73;18.70;;;;;;;19.12;88.11;99963.78;10261253;28;20137;-59
2021/09/16 02:43:27;;;;;;;21.20;18.70;;;;;;;19.12;88.15;99966.47;10249429;28;20102;-59
2021/09/16 02:48:28;;;;;;;20.33;18.23;;;;;;;19.10;88.06;99954.22;10248780;28;20130;-62
2021/09/16 02:53:30;;;;;;;20.73;18.52;;;;;;;19.11;88.27;99961.25;10264866;28;20154;-59
2021/09/16 02:58:31;;;;;;;21.77;19.67;;;;;;;19.12;88.35;99963.78;10258086;28;20755;-59
2021/09/16 03:03:33;;;;;;;20.35;18.25;;;;;;;19.16;88.24;99977.75;10296067;28;20620;-63
2021/09/16 03:08:34;;;;;;;22.25;19.85;;;;;;;19.14;88.51;99972.53;10250258;28;20563;-61
2021/09/16 03:13:36;;;;;;;22.65;19.48;;;;;;;19.06;88.50;99970.75;10281632;28;20185;-60
2021/09/16 03:18:37;;;;;;;21.65;19.45;;;;;;;19.12;88.95;99984.53;10275523;28;20113;-62
2021/09/16 03:23:38;;;;;;;20.25;18.17;;;;;;;19.10;89.84;99986.59;10247880;28;20672;-62
2021/09/16 03:28:40;;;;;;;20.60;18.50;;;;;;;19.12;90.05;99976.44;10251683;28;20128;-62
2021/09/16 03:33:41;;;;;;;20.48;18.08;;;;;;;19.11;90.18;99981.00;10239654;28;20501;-61
2021/09/16 03:38:43;;;;;;;19.98;18.08;;;;;;;19.16;90.20;99985.84;10249072;28;20126;-60
2021/09/16 03:43:44;;;;;;;20.95;17.80;;;;;;;19.19;90.22;99980.06;10257085;28;20047;-59
2021/09/16 03:48:46;;;;;;;18.65;16.85;;;;;;;19.18;88.93;99986.47;10248387;28;20046;-62
2021/09/16 03:53:47;;;;;;;18.58;16.83;;;;;;;19.18;89.53;99986.47;10253139;28;20078;-60
2021/09/16 03:58:48;;;;;;;19.80;17.77;;;;;;;19.14;89.17;99986.03;10248423;28;20124;-61
2021/09/16 04:03:50;;;;;;;17.77;16.00;;;;;;;19.13;88.91;99992.44;10241130;28;20062;-59
2021/09/16 04:08:51;;;;;;;18.90;17.10;;;;;;;19.12;87.89;99984.53;10250003;28;20118;-60
2021/09/16 04:13:53;;;;;;;18.10;16.20;;;;;;;19.11;87.41;99985.53;10281537;28;20050;-60
2021/09/16 04:18:54;;;;;;;18.30;16.65;;;;;;;19.08;86.75;99984.91;10292152;28;20105;-61
2021/09/16 04:23:55;;;;;;;18.15;16.35;;;;;;;19.08;87.14;99989.47;10290051;28;20105;-59
2021/09/16 04:28:57;;;;;;;17.88;16.08;;;;;;;19.07;86.56;99987.78;10288194;28;20194;-62
2021/09/16 04:33:58;;;;;;;16.60;15.00;;;;;;;18.99;85.56;99983.31;10266430;28;20218;-61
2021/09/16 04:39:00;;;;;;;15.68;14.27;;;;;;;18.95;86.35;99984.69;10249384;28;20137;-60
2021/09/16 04:44:01;;;;;;;16.33;14.63;;;;;;;18.98;86.27;99989.72;10248854;28;20089;-60
2021/09/16 04:49:02;;;;;;;16.50;14.90;;;;;;;18.97;85.20;100000.69;10251684;28;20129;-63
2021/09/16 04:54:04;;;;;;;14.45;13.10;;;;;;;18.94;85.33;99996.50;10253630;28;20078;-59
2021/09/16 04:59:05;;;;;;;12.57;11.38;;;;;;;18.90;83.48;100006.00;10250637;28;20130;-60
2021/09/16 05:04:07;;;;;;;11.52;10.32;;;;;;;18.87;83.10;100012.59;10263637;28;20448;-63
2021/09/16 05:09:08;;;;;;;10.95;8.70;;;;;;;18.86;82.70;100012.78;10294569;28;20368;-59
2021/09/16 05:14:11;;;;;;;10.98;9.18;;;;;;;18.80;82.23;100024.28;10292949;28;20049;-60
2021/09/16 05:19:13;;;;;;;11.80;8.33;;;;;;;18.79;81.90;100027.97;10292650;28;20112;-59
2021/09/16 05:24:17;;;;;;;12.00;9.50;;;;;;;18.81;81.84;100036.72;10295398;28;20050;-63
2021/09/16 05:29:19;;;;;;;8.43;7.63;;;;;;;18.76;81.48;100039.13;10288982;28;20527;-62
2021/09/16 05:34:20;;;;;;;9.90;8.50;;;;;;;18.72;80.16;100050.28;10283211;28;20058;-62
2021/09/16 05:39:24;;;;;;;12.10;8.98;;;;;;;18.67;80.47;100049.13;10271229;28;20047;-62
2021/09/16 05:44:25;;;;;;;8.88;8.07;;;;;;;18.65;78.58;100060.09;10250068;28;20087;-58
2021/09/16 05:49:27;;;;;;;9.75;8.88;;;;;;;18.66;78.71;100069.00;10247963;28;20079;-60
2021/09/16 05:54:28;;;;;;;9.60;8.60;;;;;;;18.59;78.43;100071.63;10255424;28;20919;-58
2021/09/16 05:59:30;;;;;;;10.30;8.38;;;;;;;18.55;77.46;100059.50;10247871;28;20081;-60
2021/09/16 06:04:31;;;;;;;9.00;7.85;;;;;;;18.56;75.33;100071.97;10280163;28;20074;-63
2021/09/16 06:09:33;;;;;;;8.85;8.05;;;;;;;18.43;76.67;100083.34;10262013;28;20113;-62
2021/09/16 06:14:35;;;;;;;8.73;7.82;;;;;;;18.47;77.16;100079.28;10280277;28;20588;-59
2021/09/16 06:19:37;;;;;;;9.48;8.65;;;;;;;18.53;77.79;100085.81;10279720;28;20526;-63
2021/09/16 06:24:38;;;;;;;7.75;6.93;;;;;;;18.54;76.80;100082.09;10268048;28;20788;-60
2021/09/16 06:29:40;;;;;;;8.88;7.45;;;;;;;18.60;77.36;100091.31;10262660;28;20054;-59
2021/09/16 06:34:41;;;;;;;8.40;7.68;;;;;;;18.61;77.12;100101.91;10274981;28;20104;-64
2021/09/16 06:39:43;;;;;;;8.57;7.78;;;;;;;18.65;76.93;100097.00;10277636;28;20630;-62
2021/09/16 06:44:46;;;;;;;8.20;7.47;;;;;;;18.71;76.30;100102.50;10282103;28;20062;-62
2021/09/16 06:49:48;;;;;;;7.50;6.75;;;;;;;18.75;74.92;100107.53;10282261;28;20476;-61
2021/09/16 06:54:51;;;;;;;6.72;5.60;;;;;;;18.38;71.79;100108.13;10279161;28;20073;-60
2021/09/16 06:59:52;;;;;;;6.45;5.85;;;;;;;18.42;73.03;100114.03;10279874;28;20581;-61
2021/09/16 07:04:54;;;;;;;7.72;6.90;;;;;;;18.52;73.47;100116.47;10279297;28;20066;-59
2021/09/16 07:09:55;;;;;;;8.60;7.70;;;;;;;18.48;71.86;100123.22;10280514;28;20058;-58
2021/09/16 07:14:57;;;;;;;8.05;7.20;;;;;;;18.58;73.28;100123.84;10277503;28;20074;-59
2021/09/16 07:19:58;;;;;;;10.07;8.80;;;;;;;18.67;72.37;100122.75;10281066;28;20070;-59
2021/09/16 07:25:00;;;;;;;11.05;8.90;;;;;;;18.71;71.37;100140.25;10282255;28;20125;-62
2021/09/16 07:30:03;;;;;;;10.65;8.55;;;;;;;18.83;71.43;100137.16;10278786;28;20213;-61
2021/09/16 07:35:05;;;;;;;9.60;8.57;;;;;;;19.01;70.02;100145.78;10280860;28;20046;-62
2021/09/16 07:40:07;;;;;;;10.15;9.15;;;;;;;19.27;69.33;100147.25;10279549;28;20042;-59
2021/09/16 07:45:09;;;;;;;7.28;6.57;;;;;;;19.25;68.05;100157.41;10281178;28;20113;-64
2021/09/16 07:50:10;;;;;;;6.28;5.47;;;;;;;19.62;66.49;100171.88;10288235;28;20141;-61
2021/09/16 07:55:12;;;;;;;9.85;5.57;;;;;;;19.56;64.32;100169.91;10289745;28;20150;-61
2021/09/16 08:00:13;;;;;;;5.97;4.18;;;;;;;19.60;63.37;100171.22;10287236;28;20079;-61
2021/09/16 08:05:16;;;;;;;5.57;4.38;;;;;;;19.80;62.16;100176.09;10286498;28;20149;-60
2021/09/16 08:10:18;;;;;;;6.77;4.27;;;;;;;19.80;62.52;100193.13;10287257;28;20063;-59
2021/09/16 08:15:19;;;;;;;4.40;3.97;;;;;;;20.49;58.01;100189.25;10288491;28;20058;-60
2021/09/16 08:20:21;;;;;;;4.07;3.60;;;;;;;20.66;58.65;100193.44;10287859;28;20078;-62
2021/09/16 08:25:23;;;;;;;4.57;3.72;;;;;;;20.99;55.97;100203.78;10287851;28;20206;-59
2021/09/16 08:30:24;;;;;;;4.85;3.88;;;;;;;21.84;54.90;100206.59;10288752;28;20082;-62
2021/09/16 08:35:26;;;;;;;3.80;3.40;;;;;;;21.85;51.44;100202.84;10293794;28;20720;-65
2021/09/16 08:40:27;;;;;;;3.03;2.80;;;;;;;21.95;52.71;100207.06;10295172;28;20185;-60
2021/09/16 08:45:29;;;;;;;2.78;2.55;;;;;;;21.91;50.66;100216.63;10293091;28;20054;-61
2021/09/16 08:50:31;;;;;;;4.38;2.80;;;;;;;21.54;53.37;100217.63;10287414;28;20694;-64
2021/09/16 08:55:34;;;;;;;3.22;1.77;;;;;;;21.16;52.46;100214.34;10285026;28;22386;-59
2021/09/16 09:00:35;;;;;;;2.57;1.50;;;;;;;21.12;53.72;100224.75;10272470;28;20134;-64
2021/09/16 09:05:39;;;;;;;2.80;1.20;;;;;;;21.48;52.51;100212.97;10241112;28;20082;-64
2021/09/16 09:10:47;;;;;;;3.75;1.08;;;;;;;21.35;51.50;100223.69;10245808;28;20062;-62
2021/09/16 09:15:59;;;;;;;2.38;1.05;;;;;;;22.33;48.87;100225.66;10249864;28;20134;-59
2021/09/16 09:21:06;;;;;;;3.10;1.00;;;;;;;22.68;48.08;100231.81;10285697;28;20050;-62
2021/09/16 09:26:31;;;;;;;2.90;0.75;;;;;;;22.28;46.93;100244.34;10273924;28;20401;-62
2021/09/16 09:31:34;;;;;;;2.05;0.88;;;;;;;22.56;48.00;100237.03;10286971;28;20054;-63
2021/09/16 09:36:39;;;;;;;2.30;0.90;;;;;;;23.25;45.85;100239.72;10272095;28;20057;-64
2021/09/16 09:41:41;;;;;;;2.47;0.75;;;;;;;23.89;44.49;100237.44;10277973;28;20478;-61
2021/09/16 09:46:42;;;;;;;2.33;0.52;;;;;;;25.11;42.80;100243.03;10284138;28;20233;-63
2021/09/16 09:51:47;;;;;;;2.15;0.80;;;;;;;25.56;40.57;100233.91;10280514;28;20558;-61
2021/09/16 09:57:02;;;;;;;1.33;0.88;;;;;;;24.81;41.86;100223.75;10278497;28;20050;-61
2021/09/16 10:02:04;;;;;;;2.00;1.15;;;;;;;23.64;43.68;100228.03;10283364;28;20137;-64
2021/09/16 10:07:06;;;;;;;3.53;1.03;;;;;;;25.58;42.38;100231.78;10270122;28;20055;-63
2021/09/16 10:12:07;;;;;;;3.20;1.48;;;;;;;25.64;39.26;100232.78;10283812;28;20100;-61
2021/09/16 10:17:08;;;;;;;2.13;1.42;;;;;;;25.18;41.13;100230.19;10284600;28;20468;-63
2021/09/16 10:22:12;;;;;;;2.65;1.70;;;;;;;24.24;42.19;100227.09;10282967;28;20081;-63
2021/09/16 10:27:27;;;;;;;4.10;1.70;;;;;;;24.88;41.88;100228.09;10284312;28;20054;-64
2021/09/16 10:32:28;;;;;;;1.90;1.48;;;;;;;24.97;40.98;100215.06;10261120;28;20058;-60
2021/09/16 10:37:36;;;;;;;2.13;1.45;;;;;;;25.56;39.39;100233.91;10248654;28;20085;-62
2021/09/16 10:43:05;;;;;;;2.70;1.48;;;;;;;23.18;44.66;100245.16;10244023;28;20566;-61
2021/09/16 10:48:12;;;;;;;3.55;1.73;;;;;;;23.43;45.15;100245.34;10249434;28;20076;-63
2021/09/16 10:53:35;;;;;;;3.60;1.42;;;;;;;23.79;44.07;100246.81;10243063;28;20138;-63
2021/09/16 10:58:50;;;;;;;2.53;1.45;;;;;;;23.91;44.13;100246.22;10250009;28;20062;-61
2021/09/16 11:03:58;;;;;;;3.95;2.00;;;;;;;25.97;39.75;100240.66;10241451;28;20058;-64
2021/09/16 11:09:03;;;;;;;2.08;1.65;;;;;;;25.02;42.25;100244.34;10241177;28;20054;-64
2021/09/16 11:14:04;;;;;;;3.65;2.22;;;;;;;22.92;46.46;100244.03;10242411;28;20065;-59
2021/09/16 11:19:06;;;;;;;2.45;1.80;;;;;;;21.70;48.54;100248.16;10240181;28;20198;-61
2021/09/16 11:24:08;;;;;;;2.50;2.03;;;;;;;21.01;50.60;100241.47;10257400;28;20126;-60
2021/09/16 11:29:09;;;;;;;2.08;1.80;;;;;;;20.96;50.94;100246.63;10261896;28;20054;-62
2021/09/16 11:34:14;;;;;;;2.30;2.13;;;;;;;21.56;49.87;100235.53;10252332;28;20065;-59
2021/09/16 11:39:16;;;;;;;2.45;2.00;;;;;;;21.49;49.09;100232.75;10258825;28;20079;-61
2021/09/16 11:44:18;;;;;;;1.97;1.87;;;;;;;21.52;49.60;100241.34;10251756;28;20108;-60
2021/09/16 11:49:20;;;;;;;2.13;1.75;;;;;;;21.64;49.51;100251.66;10263892;28;20074;-60
2021/09/16 11:54:21;;;;;;;4.80;2.78;;;;;;;21.59;51.00;100240.56;10277918;28;20897;-61
2021/09/16 11:59:23;;;;;;;2.33;1.90;;;;;;;21.03;52.03;100234.00;10279608;28;20153;-61
2021/09/16 12:04:43;;;;;;;2.97;1.60;;;;;;;21.01;50.63;100227.94;10268582;28;20489;-61
2021/09/16 12:09:44;;;;;;;1.90;1.45;;;;;;;21.33;49.71;100229.31;10243869;28;20047;-60
2021/09/16 12:14:50;;;;;;;1.70;1.60;;;;;;;21.68;52.11;100229.41;10257442;28;20458;-60
2021/09/16 12:19:53;;;;;;;0.95;0.73;;;;;;;21.85;49.37;100229.09;10257563;28;20125;-61
2021/09/16 12:24:54;;;;;;;1.25;0.55;;;;;;;21.40;49.13;100232.06;10255117;28;20046;-60
2021/09/16 12:29:56;;;;;;;1.73;0.82;;;;;;;21.19;49.46;100224.78;10252654;28;20177;-59
2021/09/16 12:34:57;;;;;;;1.20;0.80;;;;;;;21.22;50.21;100223.56;10261602;28;20180;-58
2021/09/16 12:39:58;;;;;;;1.48;0.98;;;;;;;21.31;49.90;100225.94;10286942;28;20046;-61
2021/09/16 12:45:08;;;;;;;4.32;1.13;;;;;;;21.11;50.14;100217.66;10287025;28;20077;-60
2021/09/16 12:50:10;;;;;;;1.65;0.98;;;;;;;21.04;50.31;100227.56;10257416;28;20137;-60
2021/09/16 12:55:13;;;;;;;1.95;1.00;;;;;;;21.30;52.50;100218.88;10246402;28;20137;-60
2021/09/16 13:00:21;;;;;;;1.50;1.08;;;;;;;21.10;52.75;100226.78;10246652;28;20544;-62
2021/09/16 13:05:28;;;;;;;2.35;0.80;;;;;;;21.32;51.53;100224.09;10274044;28;20046;-61
2021/09/16 13:10:30;;;;;;;3.08;1.05;;;;;;;21.56;50.83;100213.88;10281927;28;20129;-61
2021/09/16 13:15:36;;;;;;;1.08;0.85;;;;;;;22.36;48.67;100203.56;10259431;28;20073;-60
2021/09/16 13:20:39;;;;;;;2.35;1.30;;;;;;;22.01;49.94;100209.00;10269387;28;20069;-63
2021/09/16 13:25:41;;;;;;;2.37;0.93;;;;;;;21.50;49.80;100208.22;10244976;28;20182;-60
2021/09/16 13:30:42;;;;;;;1.08;0.90;;;;;;;21.75;50.24;100196.94;10252293;28;20054;-61
2021/09/16 13:35:44;;;;;;;2.75;1.23;;;;;;;21.42;52.45;100200.19;10274571;28;20775;-63
2021/09/16 13:40:45;;;;;;;2.05;0.98;;;;;;;21.44;51.38;100205.41;10283537;28;20050;-58
2021/09/16 13:45:47;;;;;;;1.13;0.98;;;;;;;21.25;52.22;100193.41;10283684;28;20137;-62
2021/09/16 13:50:48;;;;;;;1.35;1.13;;;;;;;21.35;51.98;100192.03;10282375;28;20050;-68
2021/09/16 13:55:49;;;;;;;2.28;0.85;;;;;;;21.41;52.90;100193.13;10282020;28;20123;-59
2021/09/16 14:00:51;;;;;;;1.65;0.98;;;;;;;21.41;51.84;100187.72;10281060;28;20487;-62
2021/09/16 14:05:53;;;;;;;2.05;0.90;;;;;;;21.80;50.85;100189.06;10279001;28;20497;-63
2021/09/16 14:10:54;;;;;;;2.05;1.00;;;;;;;21.83;50.89;100188.66;10264639;28;20630;-62
2021/09/16 14:15:56;;;;;;;1.40;0.70;;;;;;;21.63;51.47;100193.97;10256068;28;20069;-63
2021/09/16 14:20:57;;;;;;;1.83;0.90;;;;;;;21.70;52.00;100183.97;10259308;28;20643;-61
2021/09/16 14:25:59;;;;;;;2.13;1.30;;;;;;;21.68;51.62;100179.81;10265110;28;20697;-60
2021/09/16 14:31:01;;;;;;;1.48;1.10;;;;;;;21.78;51.66;100174.84;10270478;28;20160;-62
2021/09/16 14:36:17;;;;;;;1.98;0.77;;;;;;;21.17;51.66;100173.56;10247701;28;20074;-61
2021/09/16 14:41:19;;;;;;;0.90;0.85;;;;;;;20.99;53.15;100175.91;10262719;28;20093;-62
2021/09/16 14:46:21;;;;;;;1.17;0.90;;;;;;;20.97;53.70;100186.06;10266894;28;20487;-60
2021/09/16 14:51:24;;;;;;;3.13;1.02;;;;;;;20.76;53.75;100186.88;10269876;28;20265;-61
2021/09/16 14:56:26;;;;;;;1.38;0.70;;;;;;;20.61;55.25;100181.50;10250570;28;20099;-61
2021/09/16 15:01:27;;;;;;;2.20;1.35;;;;;;;21.10;54.63;100188.91;10258407;28;20090;-61
2021/09/16 15:06:29;;;;;;;1.40;0.80;;;;;;;21.41;53.72;100176.03;10240955;28;20113;-66
2021/09/16 15:11:31;;;;;;;2.42;0.90;;;;;;;21.38;53.32;100174.56;10238732;28;20421;-62
2021/09/16 15:16:32;;;;;;;1.45;0.90;;;;;;;21.12;54.47;100173.31;10256738;28;20347;-61
2021/09/16 15:21:34;;;;;;;2.20;1.27;;;;;;;21.02;54.30;100175.50;10249791;28;20055;-60
2021/09/16 15:26:35;;;;;;;1.38;0.70;;;;;;;20.81;53.91;100168.22;10268364;28;20161;-60
2021/09/16 15:31:37;;;;;;;1.83;1.08;;;;;;;20.82;54.97;100170.75;10276376;28;20063;-61
2021/09/16 15:36:58;;;;;;;1.58;0.90;;;;;;;21.01;54.28;100168.41;10256027;28;20078;-61
2021/09/16 15:42:00;;;;;;;2.47;0.88;;;;;;;20.79;54.27;100157.59;10243512;28;20136;-61
2021/09/16 15:47:05;;;;;;;2.17;0.93;;;;;;;20.79;54.58;100163.03;10256159;28;20144;-62
2021/09/16 15:52:10;;;;;;;1.20;1.10;;;;;;;20.88;54.62;100165.59;10263716;28;20177;-61
2021/09/16 15:57:12;;;;;;;2.00;0.93;;;;;;;20.72;54.34;100180.22;10254794;28;20089;-61
2021/09/16 16:02:14;;;;;;;1.20;1.10;;;;;;;20.50;54.72;100174.72;10255553;28;20404;-61
2021/09/16 16:07:15;;;;;;;1.40;1.30;;;;;;;20.42;55.26;100181.09;10283129;28;20057;-61
2021/09/16 16:12:17;;;;;;;2.67;1.42;;;;;;;20.47;57.41;100175.09;10284300;28;20058;-60
2021/09/16 16:17:18;;;;;;;2.70;1.90;;;;;;;20.38;56.44;100168.16;10287182;28;20587;-60
2021/09/16 16:22:23;;;;;;;1.90;1.70;;;;;;;20.28;56.64;100176.53;10283860;28;20054;-60
2021/09/16 16:27:24;;;;;;;4.22;1.75;;;;;;;20.29;56.05;100175.50;10273973;28;20488;-60
2021/09/16 16:32:26;;;;;;;3.38;2.08;;;;;;;20.09;56.48;100178.81;10277906;28;20567;-60
2021/09/16 16:37:27;;;;;;;4.10;1.77;;;;;;;19.92;57.07;100178.16;10270419;28;20058;-61
2021/09/16 16:42:28;;;;;;;2.00;1.80;;;;;;;19.82;58.43;100174.91;10263475;28;20137;-61
2021/09/16 16:47:30;;;;;;;3.17;2.10;;;;;;;19.84;57.96;100182.81;10284629;28;20068;-61
2021/09/16 16:52:31;;;;;;;3.03;2.13;;;;;;;19.70;58.38;100181.75;10261440;28;20117;-61
2021/09/16 16:57:34;;;;;;;3.15;2.40;;;;;;;19.66;59.28;100186.69;10245843;28;20055;-60
2021/09/16 17:02:36;;;;;;;3.30;1.88;;;;;;;19.67;59.06;100196.47;10245205;28;20750;-61
2021/09/16 17:07:38;;;;;;;2.63;2.38;;;;;;;19.68;60.30;100184.66;10241918;28;20046;-61
2021/09/16 17:12:40;;;;;;;3.85;2.25;;;;;;;19.76;60.30;100192.66;10241771;28;20070;-61
2021/09/16 17:17:42;;;;;;;2.78;2.20;;;;;;;19.80;60.92;100195.00;10245009;28;20146;-63
2021/09/16 17:22:45;;;;;;;1.80;1.67;;;;;;;19.74;61.67;100196.56;10259779;28;20164;-61
2021/09/16 17:27:49;;;;;;;3.67;2.10;;;;;;;19.64;59.59;100199.53;10254932;28;20140;-61
2021/09/16 17:32:50;;;;;;;;;;;;;;;19.53;60.45;100205.38;10263968;28;20763;-59
2021/09/16 17:37:52;;;;;;;2.63;1.98;;;;;;;19.51;60.52;100197.47;10286173;28;20094;-60
2021/09/16 17:42:53;;;;;;;2.10;1.95;;;;;;;19.55;60.17;100206.03;10251834;28;20055;-63
2021/09/16 17:47:55;;;;;;;3.55;2.35;;;;;;;19.43;59.06;100216.44;10239290;28;20118;-61
2021/09/16 17:52:56;;;;;;;2.63;1.85;;;;;;;19.25;59.62;100211.38;10212201;28;20182;-62
2021/09/16 17:57:58;;;;;;;3.88;1.83;;;;;;;19.49;60.16;100212.19;10247058;28;20059;-57
2021/09/16 18:02:59;;;;;;;2.40;2.15;;;;;;;19.43;58.87;100211.03;10264262;28;21033;-60
2021/09/16 18:08:01;;;;;;;2.90;1.52;;;;;;;19.32;60.12;100208.75;10280950;28;20049;-60
2021/09/16 18:13:03;;;;;;;3.55;2.00;;;;;;;19.44;59.34;100210.00;10242365;28;20062;-60
2021/09/16 18:18:05;;;;;;;3.05;1.60;;;;;;;19.48;60.24;100221.28;10248562;28;20679;-59
2021/09/16 18:23:06;;;;;;;2.67;1.63;;;;;;;19.54;59.60;100226.78;10260931;28;20038;-60
2021/09/16 18:28:08;;;;;;;3.45;2.25;;;;;;;19.56;60.76;100240.09;10257971;28;20058;-59
2021/09/16 18:33:09;;;;;;;2.47;1.85;;;;;;;19.51;59.98;100247.91;10245616;28;20307;-59
2021/09/16 18:38:11;;;;;;;4.50;2.50;;;;;;;19.37;60.57;100236.06;10251744;28;20085;-60
2021/09/16 18:43:13;;;;;;;3.53;2.25;;;;;;;19.32;59.64;100242.00;10284192;28;20104;-61
2021/09/16 18:48:15;;;;;;;3.40;2.40;;;;;;;19.34;61.15;100239.97;10276698;28;20055;-59
2021/09/16 18:53:33;;;;;;;4.00;2.15;;;;;;;19.34;60.70;100247.22;10258096;28;24717;-60
2021/09/16 18:58:35;;;;;;;2.55;1.90;;;;;;;19.14;60.09;100244.16;10264399;28;20062;-60
2021/09/16 19:03:36;;;;;;;2.92;2.58;;;;;;;19.20;62.08;100251.53;10248305;28;20162;-60
2021/09/16 19:08:38;;;;;;;3.97;2.30;;;;;;;19.24;61.80;100250.16;10249921;28;20055;-57
2021/09/16 19:13:42;;;;;;;2.35;2.03;;;;;;;19.18;62.05;100264.38;10244651;28;20117;-59
2021/09/16 19:18:44;;;;;;;3.20;2.08;;;;;;;19.31;61.82;100278.09;10272888;28;20089;-59
2021/09/16 19:23:45;;;;;;;5.75;2.35;;;;;;;19.37;61.38;100274.69;10269536;28;20046;-58
2021/09/16 19:28:50;;;;;;;3.03;2.17;;;;;;;19.38;63.20;100276.38;10287552;28;20047;-60
2021/09/16 19:33:51;;;;;;;4.07;2.40;;;;;;;19.37;62.54;100273.84;10289981;28;20464;-61
2021/09/16 19:38:53;;;;;;;2.90;2.55;;;;;;;19.33;62.49;100272.53;10288295;28;20239;-60
2021/09/16 19:43:54;;;;;;;4.05;2.33;;;;;;;19.25;62.44;100276.13;10282383;28;20074;-58
2021/09/16 19:48:56;;;;;;;3.28;2.97;;;;;;;19.27;63.06;100279.47;10289481;28;20070;-60
2021/09/16 19:53:57;;;;;;;4.30;2.60;;;;;;;19.28;62.87;100275.75;10286056;28;20086;-58
2021/09/16 19:58:58;;;;;;;2.70;2.42;;;;;;;19.28;62.59;100281.16;10280562;28;20156;-58
2021/09/16 20:04:00;;;;;;;3.30;2.70;;;;;;;19.28;62.13;100283.84;10275510;28;20196;-59
2021/09/16 20:09:02;;;;;;;3.28;2.35;;;;;;;19.28;62.60;100283.84;10277435;28;20066;-58
2021/09/16 20:14:03;;;;;;;3.33;2.75;;;;;;;19.30;61.58;100287.22;10274854;28;20530;-58
2021/09/16 20:19:05;;;;;;;4.70;3.20;;;;;;;19.14;61.50;100263.91;10249844;28;20140;-59
2021/09/16 20:24:07;;;;;;;8.63;3.78;;;;;;;19.29;62.32;100288.25;10272377;28;20562;-59
2021/09/16 20:29:09;;;;;;;4.88;3.22;;;;;;;19.28;63.60;100283.84;10275806;28;20141;-59
2021/09/16 20:34:10;;;;;;;2.30;2.10;;;;;;;19.25;62.68;100292.31;10278412;28;20137;-58
2021/09/16 20:39:12;;;;;;;2.92;2.35;;;;;;;19.17;62.69;100289.66;10271821;28;20500;-61
2021/09/16 20:44:14;;;;;;;3.72;2.53;;;;;;;18.87;60.91;100289.50;10285263;28;20104;-61
2021/09/16 20:49:15;;;;;;;4.13;2.40;;;;;;;18.84;62.18;100289.81;10283072;28;20050;-61
2021/09/16 20:54:16;;;;;;;3.00;2.00;;;;;;;18.79;62.10;100289.53;10285626;28;20066;-60
2021/09/16 20:59:18;;;;;;;2.80;2.30;;;;;;;18.81;63.66;100282.09;10297378;28;20452;-60
2021/09/16 21:04:19;;;;;;;2.55;2.15;;;;;;;18.81;62.00;100284.78;10288626;28;20598;-61
2021/09/16 21:09:21;;;;;;;3.95;2.80;;;;;;;18.70;63.27;100278.75;10294308;28;20405;-62
2021/09/16 21:14:22;;;;;;;4.15;2.40;;;;;;;18.79;63.47;100276.88;10307564;28;20663;-61
2021/09/16 21:19:24;;;;;;;3.25;2.45;;;;;;;18.89;63.05;100276.69;10305547;28;20455;-60
2021/09/16 21:24:25;;;;;;;3.80;2.50;;;;;;;18.91;63.79;100280.03;10296613;28;20055;-63
2021/09/16 21:29:27;;;;;;;2.85;2.33;;;;;;;18.85;62.89;100269.94;10288694;28;20133;-61
2021/09/16 21:34:28;;;;;;;3.15;2.33;;;;;;;18.84;63.27;100279.03;10298103;28;20046;-61
2021/09/16 21:39:30;;;;;;;3.80;2.70;;;;;;;18.86;63.85;100277.06;10287673;28;20140;-61
2021/09/16 21:44:32;;;;;;;3.70;2.80;;;;;;;18.81;64.35;100274.84;10286728;28;20574;-62
2021/09/16 21:49:33;;;;;;;3.08;2.70;;;;;;;18.79;63.91;100278.75;10292387;28;20463;-62
2021/09/16 21:54:35;;;;;;;3.05;2.78;;;;;;;18.83;63.63;100282.78;10279470;28;20496;-62
2021/09/16 21:59:36;;;;;;;4.45;2.97;;;;;;;18.83;63.81;100277.38;10276126;28;20104;-62
2021/09/16 22:04:37;;;;;;;3.95;3.08;;;;;;;18.82;64.04;100281.06;10253372;28;20051;-61
2021/09/16 22:09:39;;;;;;;3.60;2.88;;;;;;;18.81;64.12;100269.47;10261432;28;20570;-61
2021/09/16 22:14:40;;;;;;;4.03;3.22;;;;;;;18.85;64.69;100273.50;10281887;28;20086;-63
2021/09/16 22:19:42;;;;;;;3.90;3.38;;;;;;;18.78;64.40;100274.34;10269066;28;20081;-62
2021/09/16 22:24:43;;;;;;;5.32;3.28;;;;;;;18.70;65.11;100278.75;10253853;28;20152;-61
2021/09/16 22:29:45;;;;;;;4.10;3.30;;;;;;;18.51;64.42;100284.56;10258616;28;20054;-61
2021/09/16 22:34:46;;;;;;;3.40;3.08;;;;;;;18.30;64.16;100275.25;10259091;28;20080;-61
2021/09/16 22:39:48;;;;;;;5.65;3.00;;;;;;;18.17;66.78;100277.63;10260645;28;20691;-60
2021/09/16 22:44:49;;;;;;;3.95;3.53;;;;;;;18.12;66.88;100285.38;10255459;28;20043;-61
2021/09/16 22:49:51;;;;;;;4.72;3.17;;;;;;;18.16;66.71;100278.63;10253551;28;20054;-60
2021/09/16 22:54:52;;;;;;;4.68;4.03;;;;;;;17.89;68.45;100282.53;10268735;28;20535;-62
2021/09/16 22:59:54;;;;;;;4.03;3.60;;;;;;;17.77;69.27;100282.03;10250557;28;20066;-60
2021/09/16 23:04:55;;;;;;;5.00;3.42;;;;;;;17.88;69.48;100284.41;10250472;28;20058;-61